sensor_id;sensor_type;location;lat;lon;timestamp;temperature;humidity
24103;DHT22;12278;53.058;9.028;2022-09-17T00:03:34;11.60;99.90
24103;DHT22;12278;53.058;9.028;2022-09-17T00:07:35;11.60;99.90
24103;DHT22;12278;53.058;9.028;2022-09-17T00:11:37;11.60;99.90
24103;DHT22;12278;53.058;9.028;2022-09-17T00:15:45;11.60;99.90
24103;DHT22;12278;53.058;9.028;2022-09-17T00:19:46;11.50;99.90
24103;DHT22;12278;53.058;9.028;2022-09-17T00:23:48;11.50;99.90
24103;DHT22;12278;53.058;9.028;2022-09-17T00:27:56;11.50;99.90
24103;DHT22;12278;53.058;9.028;2022-09-17T00:31:56;11.40;99.90
24103;DHT22;12278;53.058;9.028;2022-09-17T00:35:59;11.40;99.90
24103;DHT22;12278;53.058;9.028;2022-09-17T00:40:01;11.40;99.90
24103;DHT22;12278;53.058;9.028;2022-09-17T00:48:40;11.30;99.90
24103;DHT22;12278;53.058;9.028;2022-09-17T00:52:50;11.30;99.90
24103;DHT22;12278;53.058;9.028;2022-09-17T00:56:57;11.20;99.90
24103;DHT22;12278;53.058;9.028;2022-09-17T01:00:59;11.20;99.90
24103;DHT22;12278;53.058;9.028;2022-09-17T01:05:01;11.10;99.90
24103;DHT22;12278;53.058;9.028;2022-09-17T01:14:08;11.10;99.90
24103;DHT22;12278;53.058;9.028;2022-09-17T01:18:54;11.10;99.90
24103;DHT22;12278;53.058;9.028;2022-09-17T01:37:14;11.00;99.90
24103;DHT22;12278;53.058;9.028;2022-09-17T01:45:42;10.90;99.90
24103;DHT22;12278;53.058;9.028;2022-09-17T01:49:50;11.00;99.90
24103;DHT22;12278;53.058;9.028;2022-09-17T02:02:33;11.00;99.90
24103;DHT22;12278;53.058;9.028;2022-09-17T02:06:42;11.00;99.90
24103;DHT22;12278;53.058;9.028;2022-09-17T02:11:06;11.00;99.90
24103;DHT22;12278;53.058;9.028;2022-09-17T02:15:15;10.90;99.90
24103;DHT22;12278;53.058;9.028;2022-09-17T02:19:27;11.00;99.90
24103;DHT22;12278;53.058;9.028;2022-09-17T02:23:35;11.00;99.90
24103;DHT22;12278;53.058;9.028;2022-09-17T02:32:18;11.00;99.90
24103;DHT22;12278;53.058;9.028;2022-09-17T02:36:19;10.90;99.90
24103;DHT22;12278;53.058;9.028;2022-09-17T02:40:22;11.00;99.90
24103;DHT22;12278;53.058;9.028;2022-09-17T02:58:23;11.10;99.90
24103;DHT22;12278;53.058;9.028;2022-09-17T03:02:38;11.10;99.90
24103;DHT22;12278;53.058;9.028;2022-09-17T03:06:46;11.00;99.90
24103;DHT22;12278;53.058;9.028;2022-09-17T03:10:48;11.10;99.90
24103;DHT22;12278;53.058;9.028;2022-09-17T03:14:49;11.10;99.90
24103;DHT22;12278;53.058;9.028;2022-09-17T03:18:50;11.10;99.90
24103;DHT22;12278;53.058;9.028;2022-09-17T03:22:51;11.00;99.90
24103;DHT22;12278;53.058;9.028;2022-09-17T03:26:52;11.00;99.90
24103;DHT22;12278;53.058;9.028;2022-09-17T03:30:55;10.90;99.90
24103;DHT22;12278;53.058;9.028;2022-09-17T03:34:56;10.90;99.90
24103;DHT22;12278;53.058;9.028;2022-09-17T03:38:57;10.90;99.90
24103;DHT22;12278;53.058;9.028;2022-09-17T03:43:01;10.90;99.90
24103;DHT22;12278;53.058;9.028;2022-09-17T03:47:01;10.90;99.90
24103;DHT22;12278;53.058;9.028;2022-09-17T03:51:03;10.90;99.90
24103;DHT22;12278;53.058;9.028;2022-09-17T03:55:04;10.90;99.90
24103;DHT22;12278;53.058;9.028;2022-09-17T03:59:05;10.90;99.90
24103;DHT22;12278;53.058;9.028;2022-09-17T04:03:08;10.90;99.90
24103;DHT22;12278;53.058;9.028;2022-09-17T04:07:12;10.80;99.90
24103;DHT22;12278;53.058;9.028;2022-09-17T04:11:13;10.80;99.90
24103;DHT22;12278;53.058;9.028;2022-09-17T04:15:14;10.80;99.90
24103;DHT22;12278;53.058;9.028;2022-09-17T04:19:15;10.80;99.90
24103;DHT22;12278;53.058;9.028;2022-09-17T04:23:15;10.90;99.90
24103;DHT22;12278;53.058;9.028;2022-09-17T04:27:16;10.90;99.90
24103;DHT22;12278;53.058;9.028;2022-09-17T04:31:17;10.80;99.90
24103;DHT22;12278;53.058;9.028;2022-09-17T04:35:18;10.70;99.90
24103;DHT22;12278;53.058;9.028;2022-09-17T04:39:21;10.70;99.90
24103;DHT22;12278;53.058;9.028;2022-09-17T04:43:22;10.60;99.90
24103;DHT22;12278;53.058;9.028;2022-09-17T04:47:27;10.60;99.90
24103;DHT22;12278;53.058;9.028;2022-09-17T04:51:28;10.60;99.90
24103;DHT22;12278;53.058;9.028;2022-09-17T04:55:29;10.70;99.90
24103;DHT22;12278;53.058;9.028;2022-09-17T04:59:30;10.70;99.90
24103;DHT22;12278;53.058;9.028;2022-09-17T05:03:34;10.70;99.90
24103;DHT22;12278;53.058;9.028;2022-09-17T05:07:38;10.70;99.90
24103;DHT22;12278;53.058;9.028;2022-09-17T05:11:39;10.70;99.90
24103;DHT22;12278;53.058;9.028;2022-09-17T05:15:42;10.70;99.90
24103;DHT22;12278;53.058;9.028;2022-09-17T05:19:46;10.70;99.90
24103;DHT22;12278;53.058;9.028;2022-09-17T05:23:53;10.80;99.90
24103;DHT22;12278;53.058;9.028;2022-09-17T05:27:54;10.80;99.90
24103;DHT22;12278;53.058;9.028;2022-09-17T05:31:55;10.80;99.90
24103;DHT22;12278;53.058;9.028;2022-09-17T05:36:01;10.80;99.90
24103;DHT22;12278;53.058;9.028;2022-09-17T05:40:14;10.80;99.90
24103;DHT22;12278;53.058;9.028;2022-09-17T05:44:16;10.70;99.90
24103;DHT22;12278;53.058;9.028;2022-09-17T05:48:16;10.70;99.90
24103;DHT22;12278;53.058;9.028;2022-09-17T05:52:17;10.80;99.90
24103;DHT22;12278;53.058;9.028;2022-09-17T05:56:20;10.70;99.90
24103;DHT22;12278;53.058;9.028;2022-09-17T06:00:21;10.70;99.90
24103;DHT22;12278;53.058;9.028;2022-09-17T06:04:22;10.70;99.90
24103;DHT22;12278;53.058;9.028;2022-09-17T06:08:24;10.70;99.90
24103;DHT22;12278;53.058;9.028;2022-09-17T06:12:31;10.80;99.90
24103;DHT22;12278;53.058;9.028;2022-09-17T06:16:34;10.90;99.90
24103;DHT22;12278;53.058;9.028;2022-09-17T06:20:39;10.90;99.90
24103;DHT22;12278;53.058;9.028;2022-09-17T06:24:40;11.00;99.90
24103;DHT22;12278;53.058;9.028;2022-09-17T06:28:47;11.00;99.90
24103;DHT22;12278;53.058;9.028;2022-09-17T06:32:48;11.10;99.90
24103;DHT22;12278;53.058;9.028;2022-09-17T06:36:49;11.30;99.90
24103;DHT22;12278;53.058;9.028;2022-09-17T06:40:50;11.40;99.90
24103;DHT22;12278;53.058;9.028;2022-09-17T06:44:51;11.40;99.90
24103;DHT22;12278;53.058;9.028;2022-09-17T06:48:52;11.40;99.90
24103;DHT22;12278;53.058;9.028;2022-09-17T06:52:53;11.40;99.90
24103;DHT22;12278;53.058;9.028;2022-09-17T06:56:54;11.40;99.90
24103;DHT22;12278;53.058;9.028;2022-09-17T07:00:59;11.80;99.90
24103;DHT22;12278;53.058;9.028;2022-09-17T07:05:01;12.00;99.90
24103;DHT22;12278;53.058;9.028;2022-09-17T07:09:02;12.10;99.90
24103;DHT22;12278;53.058;9.028;2022-09-17T07:13:03;12.30;99.90
24103;DHT22;12278;53.058;9.028;2022-09-17T07:17:03;12.60;99.90
24103;DHT22;12278;53.058;9.028;2022-09-17T07:21:10;12.30;99.90
24103;DHT22;12278;53.058;9.028;2022-09-17T07:25:17;12.40;99.90
24103;DHT22;12278;53.058;9.028;2022-09-17T07:29:24;12.30;99.90
24103;DHT22;12278;53.058;9.028;2022-09-17T07:33:26;12.50;99.90
24103;DHT22;12278;53.058;9.028;2022-09-17T07:37:35;12.30;99.90
24103;DHT22;12278;53.058;9.028;2022-09-17T07:41:36;12.90;99.90
24103;DHT22;12278;53.058;9.028;2022-09-17T07:45:37;13.10;99.90
24103;DHT22;12278;53.058;9.028;2022-09-17T07:49:38;13.10;99.90
24103;DHT22;12278;53.058;9.028;2022-09-17T07:53:38;12.80;99.90
24103;DHT22;12278;53.058;9.028;2022-09-17T07:57:39;13.40;99.90
24103;DHT22;12278;53.058;9.028;2022-09-17T08:01:40;13.70;99.90
24103;DHT22;12278;53.058;9.028;2022-09-17T08:05:43;13.80;99.90
24103;DHT22;12278;53.058;9.028;2022-09-17T08:09:44;13.90;99.90
24103;DHT22;12278;53.058;9.028;2022-09-17T08:13:48;13.80;99.90
24103;DHT22;12278;53.058;9.028;2022-09-17T08:17:51;14.20;99.90
24103;DHT22;12278;53.058;9.028;2022-09-17T08:21:52;14.20;99.90
24103;DHT22;12278;53.058;9.028;2022-09-17T08:25:57;14.60;99.90
24103;DHT22;12278;53.058;9.028;2022-09-17T08:29:59;14.10;99.90
24103;DHT22;12278;53.058;9.028;2022-09-17T08:34:00;14.30;99.90
24103;DHT22;12278;53.058;9.028;2022-09-17T08:38:01;14.10;99.90
24103;DHT22;12278;53.058;9.028;2022-09-17T08:46:18;14.50;99.90
24103;DHT22;12278;53.058;9.028;2022-09-17T08:50:31;14.80;99.90
24103;DHT22;12278;53.058;9.028;2022-09-17T09:07:56;15.10;99.90
24103;DHT22;12278;53.058;9.028;2022-09-17T09:12:25;14.90;99.90
24103;DHT22;12278;53.058;9.028;2022-09-17T09:16:32;14.50;99.90
24103;DHT22;12278;53.058;9.028;2022-09-17T09:30:34;13.60;99.90
24103;DHT22;12278;53.058;9.028;2022-09-17T09:34:13;13.20;99.90
24103;DHT22;12278;53.058;9.028;2022-09-17T09:42:35;12.40;99.90
24103;DHT22;12278;53.058;9.028;2022-09-17T09:47:01;12.00;99.90
24103;DHT22;12278;53.058;9.028;2022-09-17T09:51:07;11.80;99.90
24103;DHT22;12278;53.058;9.028;2022-09-17T10:04:28;11.60;99.90
24103;DHT22;12278;53.058;9.028;2022-09-17T10:08:35;11.50;99.90
24103;DHT22;12278;53.058;9.028;2022-09-17T10:12:40;11.60;99.90
24103;DHT22;12278;53.058;9.028;2022-09-17T10:16:41;11.70;99.90
24103;DHT22;12278;53.058;9.028;2022-09-17T10:20:56;11.70;99.90
24103;DHT22;12278;53.058;9.028;2022-09-17T10:25:01;11.40;99.90
24103;DHT22;12278;53.058;9.028;2022-09-17T10:29:12;11.40;99.90
24103;DHT22;12278;53.058;9.028;2022-09-17T10:33:21;11.30;99.90
24103;DHT22;12278;53.058;9.028;2022-09-17T10:37:46;11.10;99.90
24103;DHT22;12278;53.058;9.028;2022-09-17T10:42:04;11.00;99.90
24103;DHT22;12278;53.058;9.028;2022-09-17T10:46:08;10.90;99.90
24103;DHT22;12278;53.058;9.028;2022-09-17T10:50:18;10.90;99.90
24103;DHT22;12278;53.058;9.028;2022-09-17T10:54:41;10.80;99.90
24103;DHT22;12278;53.058;9.028;2022-09-17T10:59:00;10.70;99.90
24103;DHT22;12278;53.058;9.028;2022-09-17T11:07:32;10.60;99.90
24103;DHT22;12278;53.058;9.028;2022-09-17T11:25:25;10.90;99.90
24103;DHT22;12278;53.058;9.028;2022-09-17T11:38:52;10.50;99.90
24103;DHT22;12278;53.058;9.028;2022-09-17T11:43:03;10.40;99.90
24103;DHT22;12278;53.058;9.028;2022-09-17T11:47:35;10.50;99.90
24103;DHT22;12278;53.058;9.028;2022-09-17T11:51:55;10.70;99.90
24103;DHT22;12278;53.058;9.028;2022-09-17T11:56:24;10.70;99.90
24103;DHT22;12278;53.058;9.028;2022-09-17T12:00:37;10.70;99.90
24103;DHT22;12278;53.058;9.028;2022-09-17T12:05:00;10.60;99.90
24103;DHT22;12278;53.058;9.028;2022-09-17T12:09:19;10.50;99.90
24103;DHT22;12278;53.058;9.028;2022-09-17T12:22:42;10.40;99.90
24103;DHT22;12278;53.058;9.028;2022-09-17T12:31:13;10.50;99.90
24103;DHT22;12278;53.058;9.028;2022-09-17T12:39:54;10.60;99.90
24103;DHT22;12278;53.058;9.028;2022-09-17T12:49:46;10.80;99.90
24103;DHT22;12278;53.058;9.028;2022-09-17T12:59:16;10.90;99.90
24103;DHT22;12278;53.058;9.028;2022-09-17T13:03:36;11.00;99.90
24103;DHT22;12278;53.058;9.028;2022-09-17T13:18:11;11.60;99.90
24103;DHT22;12278;53.058;9.028;2022-09-17T13:22:08;11.70;99.90
24103;DHT22;12278;53.058;9.028;2022-09-17T13:26:19;12.00;99.90
24103;DHT22;12278;53.058;9.028;2022-09-17T13:30:55;12.30;99.90
24103;DHT22;12278;53.058;9.028;2022-09-17T13:39:37;12.00;99.90
24103;DHT22;12278;53.058;9.028;2022-09-17T13:43:43;11.80;99.90
24103;DHT22;12278;53.058;9.028;2022-09-17T13:47:56;11.70;99.90
24103;DHT22;12278;53.058;9.028;2022-09-17T13:51:58;11.60;99.90
24103;DHT22;12278;53.058;9.028;2022-09-17T13:56:00;11.60;99.90
24103;DHT22;12278;53.058;9.028;2022-09-17T14:05:16;11.50;99.90
24103;DHT22;12278;53.058;9.028;2022-09-17T14:09:33;11.60;99.90
24103;DHT22;12278;53.058;9.028;2022-09-17T14:13:47;11.70;99.90
24103;DHT22;12278;53.058;9.028;2022-09-17T14:17:52;11.80;99.90
24103;DHT22;12278;53.058;9.028;2022-09-17T14:22:01;11.90;99.90
24103;DHT22;12278;53.058;9.028;2022-09-17T14:26:18;11.90;99.90
24103;DHT22;12278;53.058;9.028;2022-09-17T14:30:35;11.90;99.90
24103;DHT22;12278;53.058;9.028;2022-09-17T14:34:36;11.70;99.90
24103;DHT22;12278;53.058;9.028;2022-09-17T14:38:41;11.70;99.90
24103;DHT22;12278;53.058;9.028;2022-09-17T14:42:49;11.70;99.90
24103;DHT22;12278;53.058;9.028;2022-09-17T14:46:59;11.70;99.90
24103;DHT22;12278;53.058;9.028;2022-09-17T14:55:24;11.60;99.90
24103;DHT22;12278;53.058;9.028;2022-09-17T14:59:57;11.50;99.90
24103;DHT22;12278;53.058;9.028;2022-09-17T15:08:16;11.50;99.90
24103;DHT22;12278;53.058;9.028;2022-09-17T15:12:27;11.60;99.90
24103;DHT22;12278;53.058;9.028;2022-09-17T15:16:29;11.40;99.90
24103;DHT22;12278;53.058;9.028;2022-09-17T15:20:30;11.40;99.90
24103;DHT22;12278;53.058;9.028;2022-09-17T15:28:49;11.50;99.90
24103;DHT22;12278;53.058;9.028;2022-09-17T15:33:00;11.40;99.90
24103;DHT22;12278;53.058;9.028;2022-09-17T15:37:05;11.50;99.90
24103;DHT22;12278;53.058;9.028;2022-09-17T15:41:32;11.50;99.90
24103;DHT22;12278;53.058;9.028;2022-09-17T15:45:34;11.50;99.90
24103;DHT22;12278;53.058;9.028;2022-09-17T15:49:38;11.50;99.90
24103;DHT22;12278;53.058;9.028;2022-09-17T15:53:53;11.50;99.90
24103;DHT22;12278;53.058;9.028;2022-09-17T15:57:58;11.50;99.90
24103;DHT22;12278;53.058;9.028;2022-09-17T16:02:08;11.50;99.90
24103;DHT22;12278;53.058;9.028;2022-09-17T16:10:26;11.40;99.90
24103;DHT22;12278;53.058;9.028;2022-09-17T16:14:26;11.30;99.90
24103;DHT22;12278;53.058;9.028;2022-09-17T16:18:27;11.30;99.90
24103;DHT22;12278;53.058;9.028;2022-09-17T16:22:28;11.30;99.90
24103;DHT22;12278;53.058;9.028;2022-09-17T16:26:30;11.30;99.90
24103;DHT22;12278;53.058;9.028;2022-09-17T16:30:34;11.30;99.90
24103;DHT22;12278;53.058;9.028;2022-09-17T16:34:41;11.30;99.90
24103;DHT22;12278;53.058;9.028;2022-09-17T16:38:43;11.30;99.90
24103;DHT22;12278;53.058;9.028;2022-09-17T16:42:45;11.30;99.90
24103;DHT22;12278;53.058;9.028;2022-09-17T16:46:47;11.30;99.90
24103;DHT22;12278;53.058;9.028;2022-09-17T16:50:48;11.30;99.90
24103;DHT22;12278;53.058;9.028;2022-09-17T16:54:49;11.30;99.90
24103;DHT22;12278;53.058;9.028;2022-09-17T16:58:54;11.40;99.90
24103;DHT22;12278;53.058;9.028;2022-09-17T17:02:56;11.40;99.90
24103;DHT22;12278;53.058;9.028;2022-09-17T17:07:02;11.30;99.90
24103;DHT22;12278;53.058;9.028;2022-09-17T17:11:03;11.30;99.90
24103;DHT22;12278;53.058;9.028;2022-09-17T17:15:05;11.30;99.90
24103;DHT22;12278;53.058;9.028;2022-09-17T17:19:08;11.30;99.90
24103;DHT22;12278;53.058;9.028;2022-09-17T17:23:10;11.40;99.90
24103;DHT22;12278;53.058;9.028;2022-09-17T17:27:13;11.40;99.90
24103;DHT22;12278;53.058;9.028;2022-09-17T17:31:15;11.40;99.90
24103;DHT22;12278;53.058;9.028;2022-09-17T17:35:17;11.40;99.90
24103;DHT22;12278;53.058;9.028;2022-09-17T17:39:19;11.30;99.90
24103;DHT22;12278;53.058;9.028;2022-09-17T17:43:21;11.30;99.90
24103;DHT22;12278;53.058;9.028;2022-09-17T17:47:22;11.30;99.90
24103;DHT22;12278;53.058;9.028;2022-09-17T17:51:23;11.20;99.90
24103;DHT22;12278;53.058;9.028;2022-09-17T17:55:24;11.20;99.90
24103;DHT22;12278;53.058;9.028;2022-09-17T17:59:32;11.30;99.90
24103;DHT22;12278;53.058;9.028;2022-09-17T18:03:33;11.20;99.90
24103;DHT22;12278;53.058;9.028;2022-09-17T18:07:37;11.20;99.90
24103;DHT22;12278;53.058;9.028;2022-09-17T18:11:37;11.20;99.90
24103;DHT22;12278;53.058;9.028;2022-09-17T18:15:38;11.20;99.90
24103;DHT22;12278;53.058;9.028;2022-09-17T18:19:39;11.20;99.90
24103;DHT22;12278;53.058;9.028;2022-09-17T18:23:40;11.20;99.90
24103;DHT22;12278;53.058;9.028;2022-09-17T18:27:42;11.20;99.90
24103;DHT22;12278;53.058;9.028;2022-09-17T18:31:43;11.20;99.90
24103;DHT22;12278;53.058;9.028;2022-09-17T18:35:47;11.20;99.90
24103;DHT22;12278;53.058;9.028;2022-09-17T18:39:48;11.30;99.90
24103;DHT22;12278;53.058;9.028;2022-09-17T18:43:51;11.30;99.90
24103;DHT22;12278;53.058;9.028;2022-09-17T18:47:53;11.10;99.90
24103;DHT22;12278;53.058;9.028;2022-09-17T18:51:55;11.20;99.90
24103;DHT22;12278;53.058;9.028;2022-09-17T18:56:01;11.10;99.90
24103;DHT22;12278;53.058;9.028;2022-09-17T19:00:05;11.10;99.90
24103;DHT22;12278;53.058;9.028;2022-09-17T19:04:09;11.10;99.90
24103;DHT22;12278;53.058;9.028;2022-09-17T19:08:11;11.00;99.90
24103;DHT22;12278;53.058;9.028;2022-09-17T19:12:12;11.10;99.90
24103;DHT22;12278;53.058;9.028;2022-09-17T19:16:14;11.00;99.90
24103;DHT22;12278;53.058;9.028;2022-09-17T19:20:16;11.00;99.90
24103;DHT22;12278;53.058;9.028;2022-09-17T19:24:19;10.90;99.90
24103;DHT22;12278;53.058;9.028;2022-09-17T19:28:21;10.90;99.90
24103;DHT22;12278;53.058;9.028;2022-09-17T19:32:23;10.90;99.90
24103;DHT22;12278;53.058;9.028;2022-09-17T19:36:26;10.80;99.90
24103;DHT22;12278;53.058;9.028;2022-09-17T19:40:27;10.80;99.90
24103;DHT22;12278;53.058;9.028;2022-09-17T19:44:34;10.80;99.90
24103;DHT22;12278;53.058;9.028;2022-09-17T19:48:36;10.90;99.90
24103;DHT22;12278;53.058;9.028;2022-09-17T19:52:44;10.90;99.90
24103;DHT22;12278;53.058;9.028;2022-09-17T19:56:45;10.90;99.90
24103;DHT22;12278;53.058;9.028;2022-09-17T20:00:55;10.90;99.90
24103;DHT22;12278;53.058;9.028;2022-09-17T20:04:57;10.90;99.90
24103;DHT22;12278;53.058;9.028;2022-09-17T20:08:59;10.80;99.90
24103;DHT22;12278;53.058;9.028;2022-09-17T20:13:00;10.80;99.90
24103;DHT22;12278;53.058;9.028;2022-09-17T20:17:02;10.80;99.90
24103;DHT22;12278;53.058;9.028;2022-09-17T20:21:12;10.70;99.90
24103;DHT22;12278;53.058;9.028;2022-09-17T20:25:17;10.70;99.90
24103;DHT22;12278;53.058;9.028;2022-09-17T20:29:19;10.60;99.90
24103;DHT22;12278;53.058;9.028;2022-09-17T20:33:21;10.60;99.90
24103;DHT22;12278;53.058;9.028;2022-09-17T20:37:23;10.50;99.90
24103;DHT22;12278;53.058;9.028;2022-09-17T20:41:26;10.50;99.90
24103;DHT22;12278;53.058;9.028;2022-09-17T20:45:28;10.50;99.90
24103;DHT22;12278;53.058;9.028;2022-09-17T20:49:30;10.50;99.90
24103;DHT22;12278;53.058;9.028;2022-09-17T20:53:40;10.50;99.90
24103;DHT22;12278;53.058;9.028;2022-09-17T20:57:41;10.50;99.90
24103;DHT22;12278;53.058;9.028;2022-09-17T21:01:47;10.50;99.90
24103;DHT22;12278;53.058;9.028;2022-09-17T21:05:49;10.40;99.90
24103;DHT22;12278;53.058;9.028;2022-09-17T21:09:49;10.40;99.90
24103;DHT22;12278;53.058;9.028;2022-09-17T21:13:51;10.30;99.90
24103;DHT22;12278;53.058;9.028;2022-09-17T21:17:52;10.30;99.90
24103;DHT22;12278;53.058;9.028;2022-09-17T21:21:53;10.20;99.90
24103;DHT22;12278;53.058;9.028;2022-09-17T21:26:03;10.10;99.90
24103;DHT22;12278;53.058;9.028;2022-09-17T21:30:12;10.00;99.90
24103;DHT22;12278;53.058;9.028;2022-09-17T21:34:13;10.00;99.90
24103;DHT22;12278;53.058;9.028;2022-09-17T21:38:14;9.80;99.90
24103;DHT22;12278;53.058;9.028;2022-09-17T21:42:15;9.70;99.90
24103;DHT22;12278;53.058;9.028;2022-09-17T21:46:17;9.70;99.90
24103;DHT22;12278;53.058;9.028;2022-09-17T21:50:20;9.70;99.90
24103;DHT22;12278;53.058;9.028;2022-09-17T21:54:21;9.60;99.90
24103;DHT22;12278;53.058;9.028;2022-09-17T21:58:24;9.50;99.90
24103;DHT22;12278;53.058;9.028;2022-09-17T22:02:25;9.50;99.90
24103;DHT22;12278;53.058;9.028;2022-09-17T22:06:28;9.40;99.90
24103;DHT22;12278;53.058;9.028;2022-09-17T22:10:37;9.30;99.90
24103;DHT22;12278;53.058;9.028;2022-09-17T22:14:38;9.20;99.90
24103;DHT22;12278;53.058;9.028;2022-09-17T22:18:38;9.20;99.90
24103;DHT22;12278;53.058;9.028;2022-09-17T22:22:39;9.20;99.90
24103;DHT22;12278;53.058;9.028;2022-09-17T22:26:42;9.10;99.90
24103;DHT22;12278;53.058;9.028;2022-09-17T22:30:46;9.10;99.90
24103;DHT22;12278;53.058;9.028;2022-09-17T22:34:47;9.00;99.90
24103;DHT22;12278;53.058;9.028;2022-09-17T22:38:51;8.90;99.90
24103;DHT22;12278;53.058;9.028;2022-09-17T22:42:53;8.80;99.90
24103;DHT22;12278;53.058;9.028;2022-09-17T22:46:54;8.80;99.90
24103;DHT22;12278;53.058;9.028;2022-09-17T22:50:56;8.80;99.90
24103;DHT22;12278;53.058;9.028;2022-09-17T22:54:56;8.60;99.90
24103;DHT22;12278;53.058;9.028;2022-09-17T22:58:58;8.60;99.90
24103;DHT22;12278;53.058;9.028;2022-09-17T23:02:58;8.70;99.90
24103;DHT22;12278;53.058;9.028;2022-09-17T23:06:59;8.80;99.90
24103;DHT22;12278;53.058;9.028;2022-09-17T23:11:00;8.80;99.90
24103;DHT22;12278;53.058;9.028;2022-09-17T23:15:01;8.90;99.90
24103;DHT22;12278;53.058;9.028;2022-09-17T23:19:02;9.10;99.90
24103;DHT22;12278;53.058;9.028;2022-09-17T23:23:03;9.10;99.90
24103;DHT22;12278;53.058;9.028;2022-09-17T23:27:04;9.10;99.90
24103;DHT22;12278;53.058;9.028;2022-09-17T23:31:07;9.30;99.90
24103;DHT22;12278;53.058;9.028;2022-09-17T23:35:15;9.40;99.90
24103;DHT22;12278;53.058;9.028;2022-09-17T23:39:16;9.40;99.90
24103;DHT22;12278;53.058;9.028;2022-09-17T23:43:17;9.40;99.90
24103;DHT22;12278;53.058;9.028;2022-09-17T23:47:18;9.40;99.90
24103;DHT22;12278;53.058;9.028;2022-09-17T23:51:20;9.50;99.90
24103;DHT22;12278;53.058;9.028;2022-09-17T23:55:22;9.60;99.90
24103;DHT22;12278;53.058;9.028;2022-09-17T23:59:26;9.60;99.90
